Time;durP1;ratioP1;P1;durP2;ratioP2;P2;SDS_P1;SDS_P2;PMS_P1;PMS_P2;Temp;Humidity;BMP_temperature;BMP_pressure;BME280_temperature;BME280_humidity;BME280_pressure;Samples;Min_cycle;Max_cycle;Signal;HPM_P1;HPM_P2
2022/03/04 00:00:09;;;;;;;23.80;15.77;;;;;;;1.98;63.32;101885.06;5062002;28;20051;-67
2022/03/04 00:02:35;;;;;;;25.42;17.00;;;;;;;1.91;63.81;101882.06;5061392;28;20446;-67
2022/03/04 00:05:00;;;;;;;24.85;16.27;;;;;;;1.85;63.68;101882.69;5062971;28;20526;-67
2022/03/04 00:07:26;;;;;;;23.88;15.75;;;;;;;1.79;63.86;101888.69;5062308;28;20033;-67
2022/03/04 00:09:51;;;;;;;24.92;16.55;;;;;;;1.74;64.63;101891.00;5060660;28;20553;-67
2022/03/04 00:12:16;;;;;;;22.13;15.40;;;;;;;1.67;64.70;101890.69;5062331;28;20028;-67
2022/03/04 00:14:41;;;;;;;23.70;15.77;;;;;;;1.63;64.85;101896.59;5062630;28;20024;-67
2022/03/04 00:17:07;;;;;;;23.77;16.15;;;;;;;1.58;65.29;101901.59;5062532;28;20114;-67
2022/03/04 00:19:32;;;;;;;25.98;16.10;;;;;;;1.51;65.53;101902.16;5062475;28;20475;-67
2022/03/04 00:21:57;;;;;;;25.27;15.88;;;;;;;1.50;65.28;101905.88;5062107;28;20300;-67
2022/03/04 00:24:23;;;;;;;24.05;16.48;;;;;;;1.47;65.72;101908.88;5061411;28;20031;-67
2022/03/04 00:26:49;;;;;;;23.75;16.33;;;;;;;1.44;65.87;101911.00;5062995;28;20423;-67
2022/03/04 00:29:15;;;;;;;26.75;16.52;;;;;;;1.43;65.89;101912.03;5062587;28;20475;-67
2022/03/04 00:31:41;;;;;;;24.73;16.38;;;;;;;1.36;66.23;101914.44;5061859;28;20017;-67
2022/03/04 00:34:08;;;;;;;24.63;16.05;;;;;;;1.30;66.32;101906.91;5062603;28;20025;-68
2022/03/04 00:36:35;;;;;;;26.33;17.45;;;;;;;1.26;66.71;101910.88;5062142;28;20225;-67
2022/03/04 00:39:02;;;;;;;29.83;17.58;;;;;;;1.25;66.38;101914.59;5061356;28;20427;-67
2022/03/04 00:41:27;;;;;;;24.40;16.95;;;;;;;1.19;66.72;101909.75;5061521;28;20056;-66
2022/03/04 00:43:52;;;;;;;24.17;16.65;;;;;;;1.18;66.70;101913.47;5062430;28;20072;-67
2022/03/04 00:46:18;;;;;;;28.00;17.27;;;;;;;1.14;67.08;101917.44;5059676;28;20516;-67
2022/03/04 00:48:45;;;;;;;23.70;16.40;;;;;;;1.08;67.51;101920.72;5061641;28;20040;-67
2022/03/04 00:51:12;;;;;;;23.75;17.08;;;;;;;1.07;67.10;101916.31;5061970;28;20368;-67
2022/03/04 00:53:37;;;;;;;24.33;16.67;;;;;;;1.01;67.76;101921.31;5061653;28;20040;-67
2022/03/04 00:56:03;;;;;;;25.50;17.13;;;;;;;0.96;67.62;101918.19;5061327;28;20028;-67
2022/03/04 00:58:29;;;;;;;23.77;17.10;;;;;;;0.95;67.95;101911.03;5061364;28;20522;-67
2022/03/04 01:00:54;;;;;;;27.20;17.67;;;;;;;0.90;68.39;101921.41;5060933;28;20534;-67
2022/03/04 01:03:20;;;;;;;25.60;15.95;;;;;;;0.89;68.06;101911.59;5061525;28;20027;-67
2022/03/04 01:05:45;;;;;;;25.35;17.63;;;;;;;0.83;68.43;101917.59;5061582;28;20394;-67
2022/03/04 01:08:11;;;;;;;24.50;16.77;;;;;;;0.84;68.28;101919.28;5060426;28;20085;-66
2022/03/04 01:10:37;;;;;;;26.67;17.10;;;;;;;0.79;68.52;101926.97;5061603;28;20085;-67
2022/03/04 01:13:02;;;;;;;27.45;17.58;;;;;;;0.74;68.57;101923.81;5061067;28;20281;-67
2022/03/04 01:15:27;;;;;;;24.38;17.27;;;;;;;0.68;68.62;101913.59;5061874;28;20032;-66
2022/03/04 01:17:53;;;;;;;26.83;17.45;;;;;;;0.63;68.73;101922.09;5061197;28;20107;-67
2022/03/04 01:20:19;;;;;;;26.67;17.08;;;;;;;0.51;69.43;101915.97;5060585;28;20039;-67
2022/03/04 01:22:44;;;;;;;28.10;18.08;;;;;;;0.45;69.71;101916.50;5060713;28;20312;-66
2022/03/04 01:25:10;;;;;;;24.38;16.83;;;;;;;0.41;69.67;101923.22;5061184;28;20043;-67
2022/03/04 01:27:36;;;;;;;27.25;16.58;;;;;;;0.41;70.08;101911.53;5061847;28;20097;-67
2022/03/04 01:30:07;;;;;;;26.48;18.15;;;;;;;0.41;70.11;101911.53;5060596;28;20067;-67
2022/03/04 01:32:32;;;;;;;24.98;16.83;;;;;;;0.39;69.78;101917.06;5060271;28;20044;-67
2022/03/04 01:34:57;;;;;;;27.08;17.95;;;;;;;0.38;70.07;101912.66;5061119;28;20024;-67
2022/03/04 01:37:23;;;;;;;27.40;17.92;;;;;;;0.34;70.24;101903.13;5060188;28;20017;-67
2022/03/04 01:39:48;;;;;;;27.80;17.90;;;;;;;0.32;70.20;101902.41;5060074;28;20011;-66
2022/03/04 01:42:14;;;;;;;23.67;16.80;;;;;;;0.29;70.38;101908.06;5059308;28;20024;-67
2022/03/04 01:44:40;;;;;;;25.10;17.30;;;;;;;0.26;70.16;101902.97;5060718;28;20040;-66
2022/03/04 01:47:05;;;;;;;27.15;18.33;;;;;;;0.24;70.19;101908.50;5060744;28;20170;-67
2022/03/04 01:49:31;;;;;;;26.08;16.50;;;;;;;0.22;70.22;101915.03;5061023;28;20798;-67
2022/03/04 01:51:56;;;;;;;27.25;18.15;;;;;;;0.21;70.87;101911.47;5060558;28;20033;-67
2022/03/04 01:54:22;;;;;;;27.20;17.08;;;;;;;0.22;70.38;101918.59;5059942;28;20063;-67
2022/03/04 01:56:47;;;;;;;27.10;18.17;;;;;;;0.20;70.42;101917.88;5060739;28;20063;-67
2022/03/04 01:59:12;;;;;;;26.75;17.40;;;;;;;0.18;70.55;101927.94;5060424;28;20245;-67
2022/03/04 02:01:37;;;;;;;30.33;17.95;;;;;;;0.18;70.57;101922.56;5060825;28;20093;-67
2022/03/04 02:04:03;;;;;;;29.05;17.95;;;;;;;0.21;70.41;101918.75;5060418;28;20445;-67
2022/03/04 02:06:28;;;;;;;28.73;18.30;;;;;;;0.27;70.46;101922.72;5060131;28;20029;-68
2022/03/04 02:08:53;;;;;;;26.98;18.27;;;;;;;0.36;70.01;101922.78;5059452;28;20028;-67
2022/03/04 02:11:19;;;;;;;28.13;18.75;;;;;;;0.45;70.01;101929.16;5060724;28;20479;-67
2022/03/04 02:13:44;;;;;;;25.90;18.08;;;;;;;0.49;70.04;101923.34;5060773;28;20035;-67
2022/03/04 02:16:18;;;;;;;25.95;18.35;;;;;;;0.54;69.87;101919.38;5059787;28;20033;-66
2022/03/04 02:18:44;;;;;;;28.85;17.98;;;;;;;0.59;69.65;101906.31;5060699;28;20757;-67
2022/03/04 02:21:10;;;;;;;27.45;17.73;;;;;;;0.54;70.16;101911.28;5060168;28;20028;-65
2022/03/04 02:23:35;;;;;;;28.48;18.75;;;;;;;0.49;70.20;101911.69;5060257;28;20103;-68
2022/03/04 02:26:01;;;;;;;27.67;17.65;;;;;;;0.44;70.08;101912.09;5064999;28;20478;-67
2022/03/04 02:28:26;;;;;;;26.50;18.08;;;;;;;0.39;70.06;101906.25;5064805;28;20407;-67
2022/03/04 02:30:52;;;;;;;27.67;18.25;;;;;;;0.35;70.70;101910.22;5064092;28;20345;-67
2022/03/04 02:33:17;;;;;;;26.63;18.63;;;;;;;0.34;70.34;101902.25;5063924;28;20044;-67
2022/03/04 02:35:42;;;;;;;29.02;18.45;;;;;;;0.30;70.80;101908.94;5064490;28;20059;-67
2022/03/04 02:38:08;;;;;;;27.73;18.80;;;;;;;0.21;71.00;101924.13;5064290;28;20439;-67
2022/03/04 02:40:34;;;;;;;29.27;18.67;;;;;;;0.15;71.25;101912.03;5064094;28;20435;-67
2022/03/04 02:42:59;;;;;;;29.45;18.70;;;;;;;0.11;71.38;101909.75;5064602;28;20021;-67
2022/03/04 02:45:25;;;;;;;28.63;17.98;;;;;;;0.07;71.55;101902.91;5064574;28;20116;-67
2022/03/04 02:47:50;;;;;;;28.90;20.15;;;;;;;0.10;71.72;101908.00;5063925;28;20025;-67
2022/03/04 02:50:16;;;;;;;30.85;20.40;;;;;;;0.13;71.19;101900.50;5063805;28;20051;-67
2022/03/04 02:52:42;;;;;;;30.38;19.67;;;;;;;0.17;70.87;101899.25;5063051;28;20383;-67
2022/03/04 02:57:42;;;;;;;29.45;18.52;;;;;;;0.20;71.15;101898.09;5049793;22;20544;-67
2022/03/04 03:00:08;;;;;;;29.67;19.25;;;;;;;0.21;71.18;101899.81;5044448;28;20017;-67
2022/03/04 03:02:33;;;;;;;29.23;18.83;;;;;;;0.18;70.93;101906.34;5043919;28;20570;-67
2022/03/04 03:04:59;;;;;;;29.58;18.75;;;;;;;0.14;71.09;101899.50;5043866;28;20124;-67
2022/03/04 03:07:24;;;;;;;32.92;19.88;;;;;;;0.10;71.33;101908.91;5043344;28;20104;-65
2022/03/04 03:09:49;;;;;;;28.92;19.00;;;;;;;0.04;71.43;101912.13;5043215;28;20462;-67
2022/03/04 03:12:15;;;;;;;31.40;19.02;;;;;;;0.03;71.73;101905.00;5043222;28;20033;-67
2022/03/04 03:14:40;;;;;;;31.80;19.67;;;;;;;0.06;71.57;101896.66;5044008;28;20040;-66
2022/03/04 03:17:05;;;;;;;27.42;18.40;;;;;;;0.10;71.07;101902.59;5043697;28;20461;-67
2022/03/04 03:19:30;;;;;;;30.27;19.80;;;;;;;0.07;71.79;101902.91;5043322;28;20029;-67
2022/03/04 03:21:56;;;;;;;29.98;19.35;;;;;;;0.07;71.83;101908.31;5043388;28;20033;-67
2022/03/04 03:24:21;;;;;;;29.67;20.00;;;;;;;0.08;71.82;101904.59;5043073;28;20109;-67
2022/03/04 03:26:46;;;;;;;32.25;20.58;;;;;;;0.07;71.74;101897.50;5043498;28;20098;-67
2022/03/04 03:29:12;;;;;;;35.28;20.27;;;;;;;0.09;71.49;101906.31;5042866;28;20048;-67
2022/03/04 03:31:37;;;;;;;32.45;20.45;;;;;;;0.05;72.17;101904.88;5043614;28;20642;-67
2022/03/04 03:34:02;;;;;;;29.80;19.35;;;;;;;0.08;71.98;101904.59;5043648;28;20113;-66
2022/03/04 03:36:27;;;;;;;33.53;20.55;;;;;;;0.10;71.70;101910.72;5042855;28;20028;-67
2022/03/04 03:38:53;;;;;;;30.90;19.92;;;;;;;0.10;72.00;101902.59;5042396;28;20025;-67
2022/03/04 03:41:18;;;;;;;32.80;20.38;;;;;;;0.09;71.65;101914.41;5042838;28;20356;-67
2022/03/04 03:43:44;;;;;;;32.45;20.17;;;;;;;0.07;71.94;101909.16;5043589;28;20018;-67
2022/03/04 03:46:09;;;;;;;32.15;19.52;;;;;;;0.05;71.95;101910.25;5042113;28;20029;-64
2022/03/04 03:48:38;;;;;;;32.58;20.80;;;;;;;0.03;72.07;101906.84;5043383;28;20271;-67
2022/03/04 03:51:03;;;;;;;32.67;20.02;;;;;;;-0.02;72.46;101910.81;5043119;28;20029;-67
2022/03/04 03:53:28;;;;;;;29.77;20.48;;;;;;;-0.02;72.11;101912.66;5041659;28;20518;-67
2022/03/04 03:55:54;;;;;;;32.40;20.02;;;;;;;0.03;72.28;101923.06;5042904;28;20163;-67
2022/03/04 03:58:19;;;;;;;33.95;21.33;;;;;;;0.03;72.72;101917.66;5042750;28;20120;-67
2022/03/04 04:00:44;;;;;;;33.72;20.58;;;;;;;0.03;72.24;101912.25;5041809;28;20028;-67
2022/03/04 04:03:09;;;;;;;35.15;21.42;;;;;;;0.05;72.26;101916.56;5042904;28;20025;-66
2022/03/04 04:05:35;;;;;;;36.63;20.92;;;;;;;0.08;72.16;101915.41;5043043;28;20043;-67
2022/03/04 04:08:00;;;;;;;33.20;21.02;;;;;;;0.10;72.07;101917.00;5042349;28;20471;-67
2022/03/04 04:10:25;;;;;;;32.90;20.20;;;;;;;0.13;71.66;101922.09;5042060;28;20068;-67
2022/03/04 04:12:50;;;;;;;31.70;20.42;;;;;;;0.15;71.89;101921.97;5042698;28;20025;-67
2022/03/04 04:15:16;;;;;;;32.60;20.60;;;;;;;0.13;71.89;101929.34;5042958;28;20033;-67
2022/03/04 04:17:41;;;;;;;31.27;20.65;;;;;;;0.11;72.07;101923.25;5042114;28;20138;-67
2022/03/04 04:20:07;;;;;;;32.00;20.70;;;;;;;0.11;71.78;101928.66;5042721;28;20031;-67
2022/03/04 04:22:32;;;;;;;31.67;19.95;;;;;;;0.08;72.13;101926.22;5041512;28;20305;-67
2022/03/04 04:24:57;;;;;;;31.40;20.73;;;;;;;0.08;71.86;101924.38;5042777;28;20330;-67
2022/03/04 04:27:22;;;;;;;36.08;21.08;;;;;;;0.06;71.92;101929.06;5042084;28;20309;-67
2022/03/04 04:29:48;;;;;;;34.83;21.30;;;;;;;0.04;72.13;101930.16;5042226;28;20025;-67
2022/03/04 04:32:13;;;;;;;33.75;22.30;;;;;;;0.03;72.09;101928.47;5041629;28;20025;-67
2022/03/04 04:34:38;;;;;;;34.17;22.38;;;;;;;-0.01;72.51;101926.03;5042390;28;20029;-65
2022/03/04 04:37:04;;;;;;;31.13;20.73;;;;;;;0.02;72.24;101932.16;5042952;28;20043;-67
2022/03/04 04:39:29;;;;;;;34.05;21.13;;;;;;;0.01;72.55;101933.16;5040948;28;20059;-67
2022/03/04 04:41:54;;;;;;;33.10;21.35;;;;;;;0.05;72.51;101937.28;5041359;28;20033;-67
2022/03/04 04:44:20;;;;;;;33.00;21.10;;;;;;;0.04;72.42;101943.66;5041982;28;20463;-67
2022/03/04 04:46:45;;;;;;;31.42;20.98;;;;;;;0.01;72.59;101930.47;5041065;28;20100;-67
2022/03/04 04:49:10;;;;;;;34.30;21.83;;;;;;;-0.02;72.80;101937.81;5041879;28;20037;-66
2022/03/04 04:51:36;;;;;;;34.90;22.10;;;;;;;-0.07;72.73;101929.28;5041824;28;20021;-67
2022/03/04 04:54:01;;;;;;;34.72;22.10;;;;;;;-0.08;72.95;101926.72;5041212;28;20021;-67
2022/03/04 04:56:27;;;;;;;33.95;21.83;;;;;;;-0.10;73.06;101934.97;5041521;28;20541;-67
2022/03/04 04:58:52;;;;;;;38.03;22.70;;;;;;;-0.14;73.25;101932.66;5041790;28;20021;-67
2022/03/04 05:01:17;;;;;;;35.38;22.35;;;;;;;-0.12;73.02;101923.41;5040586;28;20589;-67
2022/03/04 05:03:43;;;;;;;36.95;23.52;;;;;;;-0.16;73.45;101927.38;5041869;28;20109;-67
2022/03/04 05:06:09;;;;;;;38.05;23.35;;;;;;;-0.16;73.50;101929.22;5041707;28;20052;-67
2022/03/04 05:08:34;;;;;;;34.38;22.83;;;;;;;-0.18;73.85;101932.06;5041239;28;20032;-67
2022/03/04 05:11:00;;;;;;;34.17;22.02;;;;;;;-0.19;74.04;101927.66;5041518;28;20032;-67
2022/03/04 05:13:26;;;;;;;35.40;23.77;;;;;;;-0.22;73.68;101927.91;5041447;28;20345;-67
2022/03/04 05:15:51;;;;;;;33.15;22.83;;;;;;;-0.23;73.93;101928.91;5040912;28;20534;-67
2022/03/04 05:18:17;;;;;;;32.95;21.42;;;;;;;-0.24;74.18;101934.44;5041541;28;20379;-67
2022/03/04 05:20:43;;;;;;;36.90;23.60;;;;;;;-0.29;74.22;101933.00;5041296;28;20025;-67
2022/03/04 05:23:09;;;;;;;35.88;23.23;;;;;;;-0.33;74.35;101923.44;5040035;28;20037;-68
2022/03/04 05:25:34;;;;;;;36.45;22.90;;;;;;;-0.36;74.55;101934.50;5041705;28;20059;-67
2022/03/04 05:27:59;;;;;;;38.60;22.95;;;;;;;-0.36;74.61;101931.81;5041814;28;20465;-67
2022/03/04 05:30:25;;;;;;;38.22;23.80;;;;;;;-0.36;74.55;101934.50;5040892;28;20041;-67
2022/03/04 05:32:50;;;;;;;36.20;22.58;;;;;;;-0.34;74.59;101942.50;5040472;28;20033;-67
2022/03/04 05:35:15;;;;;;;33.85;22.02;;;;;;;-0.35;74.95;101930.00;5040747;28;20304;-67
2022/03/04 05:37:41;;;;;;;41.05;24.48;;;;;;;-0.36;75.31;101939.03;5040610;28;20067;-67
2022/03/04 05:40:07;;;;;;;36.55;22.48;;;;;;;-0.36;74.86;101942.59;5041691;28;20439;-68
2022/03/04 05:42:32;;;;;;;38.08;22.30;;;;;;;-0.36;74.63;101939.03;5040336;28;20025;-67
2022/03/04 05:44:57;;;;;;;37.78;24.33;;;;;;;-0.41;75.28;101946.69;5041177;28;20375;-67
2022/03/04 05:47:22;;;;;;;37.85;23.33;;;;;;;-0.45;75.08;101950.66;5040349;28;20108;-68
2022/03/04 05:49:48;;;;;;;37.53;23.48;;;;;;;-0.49;75.55;101962.69;5041065;28;20029;-67
2022/03/04 05:52:13;;;;;;;36.40;23.25;;;;;;;-0.52;75.34;101955.72;5039460;28;20091;-67
2022/03/04 05:54:38;;;;;;;37.42;23.65;;;;;;;-0.54;75.54;101963.94;5040847;28;20028;-64
2022/03/04 05:57:04;;;;;;;38.70;24.00;;;;;;;-0.57;75.12;101968.75;5040706;28;20047;-67
2022/03/04 05:59:29;;;;;;;40.78;24.75;;;;;;;-0.59;75.42;101968.03;5038720;28;20103;-68
2022/03/04 06:01:55;;;;;;;37.40;24.42;;;;;;;-0.61;75.48;101964.59;5039890;28;20056;-68
2022/03/04 06:04:20;;;;;;;38.70;23.85;;;;;;;-0.60;75.47;101975.28;5039924;28;20017;-68
2022/03/04 06:06:46;;;;;;;39.83;25.05;;;;;;;-0.61;75.74;101973.56;5040644;28;20028;-68
2022/03/04 06:09:11;;;;;;;42.80;23.98;;;;;;;-0.59;75.42;101979.66;5039524;28;20049;-67
2022/03/04 06:11:36;;;;;;;38.92;23.83;;;;;;;-0.59;75.78;101981.50;5041396;28;20067;-67
2022/03/04 06:14:02;;;;;;;38.58;24.60;;;;;;;-0.59;75.59;101986.91;5040197;28;20035;-68
2022/03/04 06:16:27;;;;;;;39.55;24.15;;;;;;;-0.65;75.94;101985.59;5038523;28;20090;-67
2022/03/04 06:18:53;;;;;;;39.10;24.52;;;;;;;-0.67;76.02;101981.28;5041037;28;20037;-67
2022/03/04 06:21:18;;;;;;;41.83;24.80;;;;;;;-0.68;76.44;101983.13;5038797;28;20079;-67
2022/03/04 06:23:44;;;;;;;38.95;23.65;;;;;;;-0.70;76.37;101978.88;5039679;28;20100;-68
2022/03/04 06:26:10;;;;;;;39.95;24.88;;;;;;;-0.69;76.54;101981.44;5040277;28;20115;-67
2022/03/04 06:28:35;;;;;;;38.78;24.20;;;;;;;-0.69;76.15;101978.75;5040811;28;20112;-67
2022/03/04 06:31:00;;;;;;;38.40;24.23;;;;;;;-0.70;76.73;101978.88;5040474;28;20108;-68
2022/03/04 06:33:35;;;;;;;42.88;24.17;;;;;;;-0.68;77.00;101979.59;5040182;28;20079;-67
2022/03/04 06:36:05;;;;;;;38.58;24.63;;;;;;;-0.67;76.91;101984.84;5040277;28;20029;-68
2022/03/04 06:38:32;;;;;;;39.05;25.00;;;;;;;-0.69;77.35;101984.13;5039328;28;20017;-67
2022/03/04 06:40:58;;;;;;;41.28;25.00;;;;;;;-0.69;77.36;101980.59;5040491;28;20039;-67
2022/03/04 06:43:23;;;;;;;42.25;24.52;;;;;;;-0.69;77.40;101980.59;5039836;28;20088;-68
2022/03/04 06:45:49;;;;;;;45.42;26.83;;;;;;;-0.66;77.81;101991.09;5039676;28;20035;-67
2022/03/04 06:48:17;;;;;;;41.10;24.95;;;;;;;-0.62;77.57;101997.94;5040375;28;20017;-67
2022/03/04 06:50:42;;;;;;;;;;;;;;;-0.54;75.23;101995.47;5041279;28;20352;-67
2022/03/04 06:53:07;;;;;;;39.57;24.03;;;;;;;-0.40;76.68;101997.84;5039537;28;19913;-68
2022/03/04 06:55:33;;;;;;;41.13;24.38;;;;;;;-0.10;76.39;102007.88;5039860;28;20278;-67
2022/03/04 06:57:59;;;;;;;41.65;25.63;;;;;;;0.19;75.19;102004.44;5040362;28;20114;-67
2022/03/04 07:00:25;;;;;;;42.35;25.88;;;;;;;0.37;74.11;102004.69;5039821;28;20056;-67
2022/03/04 07:02:51;;;;;;;40.72;24.77;;;;;;;0.32;74.43;102009.66;5040104;28;20052;-68
2022/03/04 07:05:16;;;;;;;39.63;26.02;;;;;;;0.21;74.86;102019.56;5040234;28;20053;-68
2022/03/04 07:07:41;;;;;;;42.10;26.17;;;;;;;0.15;75.17;102020.09;5038846;28;20024;-68
2022/03/04 07:10:08;;;;;;;43.58;25.92;;;;;;;0.12;75.64;102014.09;5041991;28;20029;-67
2022/03/04 07:12:33;;;;;;;40.55;24.92;;;;;;;0.12;75.46;102027.59;5044385;28;20040;-67
2022/03/04 07:14:59;;;;;;;44.35;26.38;;;;;;;0.16;75.58;102034.44;5044176;28;20487;-67
2022/03/04 07:17:24;;;;;;;39.22;24.67;;;;;;;0.20;75.73;102027.75;5042702;28;20070;-68
2022/03/04 07:19:49;;;;;;;42.15;25.17;;;;;;;0.27;75.68;102028.09;5043764;28;20718;-68
2022/03/04 07:22:15;;;;;;;41.08;26.00;;;;;;;0.38;75.64;102028.88;5042601;28;20344;-68
2022/03/04 07:24:41;;;;;;;39.55;25.83;;;;;;;0.65;75.21;102027.41;5043676;28;20448;-69
2022/03/04 07:27:06;;;;;;;42.22;26.05;;;;;;;0.88;74.14;102023.50;5044232;28;20533;-69
2022/03/04 07:29:31;;;;;;;43.25;25.95;;;;;;;1.03;73.51;102016.69;5041650;28;20021;-68
2022/03/04 07:31:57;;;;;;;43.40;25.83;;;;;;;1.14;73.23;102025.69;5042685;28;20378;-68
2022/03/04 07:34:23;;;;;;;44.97;25.77;;;;;;;1.32;72.78;102037.53;5043577;28;20032;-68
2022/03/04 07:36:49;;;;;;;42.35;26.17;;;;;;;1.45;72.20;102032.69;5042874;28;20017;-69
2022/03/04 07:39:15;;;;;;;40.70;25.85;;;;;;;1.63;71.07;102027.41;5043272;28;20027;-68
2022/03/04 07:41:40;;;;;;;39.38;25.02;;;;;;;1.73;71.01;102030.97;5042466;28;20059;-68
2022/03/04 07:44:06;;;;;;;43.50;27.13;;;;;;;1.79;70.77;102032.25;5043871;28;20108;-68
2022/03/04 07:46:31;;;;;;;40.10;22.92;;;;;;;1.68;70.52;102033.25;5042830;28;20029;-69
2022/03/04 07:48:57;;;;;;;43.38;25.92;;;;;;;1.60;71.44;102029.53;5042965;28;20074;-69
2022/03/04 07:51:23;;;;;;;40.85;25.92;;;;;;;1.77;71.12;102026.97;5042615;28;20035;-69
2022/03/04 07:53:48;;;;;;;41.90;25.02;;;;;;;2.12;69.23;102036.31;5042303;28;20026;-69
2022/03/04 07:56:14;;;;;;;40.15;25.08;;;;;;;2.33;68.79;102025.25;5042313;28;20125;-68
2022/03/04 07:58:39;;;;;;;41.95;24.55;;;;;;;2.37;68.34;102025.81;5043498;28;20033;-68
2022/03/04 08:01:05;;;;;;;41.13;25.00;;;;;;;2.37;68.21;102033.94;5042647;28;20057;-69
2022/03/04 08:03:31;;;;;;;43.25;25.33;;;;;;;2.43;68.70;102031.50;5042937;28;20040;-68
2022/03/04 08:05:56;;;;;;;39.08;24.55;;;;;;;2.72;67.98;102035.94;5042794;28;20018;-69
2022/03/04 08:08:21;;;;;;;36.70;23.23;;;;;;;2.89;67.23;102040.59;5041853;28;20017;-69
2022/03/04 08:10:47;;;;;;;41.72;23.75;;;;;;;3.06;66.20;102028.91;5042468;28;20037;-70
2022/03/04 08:13:12;;;;;;;39.40;25.15;;;;;;;3.44;66.03;102026.06;5042102;28;20472;-70
2022/03/04 08:15:37;;;;;;;37.83;24.10;;;;;;;4.16;64.34;102030.41;5042380;28;20429;-67
2022/03/04 08:18:02;;;;;;;40.42;24.02;;;;;;;4.97;60.88;102038.13;5043148;28;20029;-67
2022/03/04 08:20:29;;;;;;;38.95;24.00;;;;;;;5.76;58.60;102036.75;5042099;28;20116;-67
2022/03/04 08:22:54;;;;;;;38.58;23.20;;;;;;;6.03;56.59;102035.56;5040687;28;20580;-68
2022/03/04 08:25:20;;;;;;;36.55;23.08;;;;;;;5.87;56.16;102039.13;5042701;28;20025;-68
2022/03/04 08:27:45;;;;;;;37.03;22.92;;;;;;;6.22;55.71;102037.06;5042399;28;20025;-68
2022/03/04 08:30:12;;;;;;;38.33;23.10;;;;;;;6.74;55.06;102031.13;5041571;28;20025;-68
2022/03/04 08:32:39;;;;;;;36.17;22.77;;;;;;;7.56;52.91;102047.13;5042274;28;20109;-68
2022/03/04 08:35:06;;;;;;;35.08;22.77;;;;;;;8.24;51.54;102041.56;5042867;28;20021;-68
2022/03/04 08:37:31;;;;;;;34.78;22.83;;;;;;;8.39;49.09;102047.09;5041181;28;20067;-68
2022/03/04 08:39:57;;;;;;;36.22;20.88;;;;;;;8.39;48.91;102052.56;5042422;28;20025;-68
2022/03/04 08:42:23;;;;;;;37.67;22.15;;;;;;;8.61;48.05;102048.03;5041794;28;20025;-68
2022/03/04 08:44:49;;;;;;;34.53;21.13;;;;;;;8.63;47.89;102067.06;5041514;28;20537;-68
2022/03/04 08:47:14;;;;;;;36.63;22.83;;;;;;;8.49;49.08;102057.78;5041473;28;20029;-68
2022/03/04 08:49:39;;;;;;;32.45;21.50;;;;;;;8.33;48.30;102056.88;5042466;28;20083;-68
2022/03/04 08:52:06;;;;;;;35.90;23.08;;;;;;;8.14;49.09;102054.66;5041742;28;20029;-68
2022/03/04 08:54:31;;;;;;;30.83;21.42;;;;;;;8.07;50.68;102054.56;5041687;28;20021;-68
2022/03/04 08:56:57;;;;;;;34.85;22.67;;;;;;;8.05;49.61;102058.50;5041635;28;20446;-68
2022/03/04 08:59:22;;;;;;;33.25;22.38;;;;;;;8.39;49.06;102062.69;5041629;28;20064;-68
2022/03/04 09:01:47;;;;;;;32.40;21.33;;;;;;;9.11;46.65;102049.16;5041044;28;20459;-68
2022/03/04 09:04:14;;;;;;;31.92;21.95;;;;;;;9.78;44.76;102051.63;5041518;28;20025;-68
2022/03/04 09:06:40;;;;;;;33.97;20.48;;;;;;;10.47;43.98;102058.34;5040768;28;20154;-69
2022/03/04 09:09:05;;;;;;;32.33;21.80;;;;;;;11.55;42.13;102048.47;5041587;28;20112;-68
2022/03/04 09:11:30;;;;;;;30.77;21.08;;;;;;;12.16;39.73;102049.22;5041419;28;20055;-68
2022/03/04 09:13:56;;;;;;;32.38;20.27;;;;;;;12.86;38.13;102054.22;5041681;28;20023;-68
2022/03/04 09:16:21;;;;;;;30.63;20.52;;;;;;;13.47;37.40;102057.41;5040711;28;20025;-68
2022/03/04 09:18:46;;;;;;;33.67;20.50;;;;;;;14.16;35.31;102047.38;5041118;28;20032;-68
2022/03/04 09:21:11;;;;;;;32.65;20.40;;;;;;;14.66;35.56;102044.63;5039793;28;20506;-68
2022/03/04 09:23:37;;;;;;;29.02;20.02;;;;;;;15.24;33.21;102037.75;5041323;28;20025;-67
2022/03/04 09:26:02;;;;;;;32.80;21.48;;;;;;;16.40;31.88;102039.19;5040768;28;20079;-65
2022/03/04 09:28:27;;;;;;;30.55;20.48;;;;;;;16.26;30.68;102034.97;5039696;28;20506;-66
2022/03/04 09:30:53;;;;;;;33.83;21.45;;;;;;;16.55;30.88;102034.00;5041118;28;20053;-66
2022/03/04 09:33:18;;;;;;;29.75;20.65;;;;;;;17.15;30.76;102024.53;5039777;28;20025;-66
2022/03/04 09:35:43;;;;;;;33.63;21.88;;;;;;;17.49;29.70;102024.66;5041031;28;20120;-67
2022/03/04 09:38:08;;;;;;;30.33;20.95;;;;;;;17.67;28.96;102023.59;5039965;28;20569;-68
2022/03/04 09:40:34;;;;;;;30.10;21.25;;;;;;;17.68;28.51;102020.56;5041748;28;20264;-69
2022/03/04 09:43:00;;;;;;;31.95;22.23;;;;;;;18.07;28.13;102017.97;5041009;28;20079;-67
2022/03/04 09:45:26;;;;;;;29.88;21.65;;;;;;;18.51;28.41;102024.50;5040839;28;20025;-68
2022/03/04 09:47:51;;;;;;;32.60;22.67;;;;;;;19.13;27.85;102018.72;5040454;28;20036;-68
2022/03/04 09:50:16;;;;;;;31.05;23.60;;;;;;;18.90;26.19;102019.78;5040543;28;20040;-68
2022/03/04 09:52:43;;;;;;;30.33;21.60;;;;;;;19.50;26.61;102019.97;5040240;28;20024;-67
2022/03/04 09:55:09;;;;;;;31.98;22.27;;;;;;;19.72;25.67;102018.00;5041639;28;20040;-64
2022/03/04 09:57:35;;;;;;;29.50;22.20;;;;;;;20.05;25.94;102021.66;5040774;28;20041;-67
2022/03/04 10:00:00;;;;;;;32.72;22.60;;;;;;;20.45;25.31;102029.50;5040487;28;20075;-67
2022/03/04 10:02:26;;;;;;;30.58;22.77;;;;;;;20.66;24.26;102034.13;5040106;28;20483;-67
2022/03/04 10:04:58;;;;;;;34.58;22.92;;;;;;;20.65;25.01;102035.25;5041114;28;20116;-67
2022/03/04 10:07:24;;;;;;;35.97;24.20;;;;;;;20.59;24.93;102033.53;5039265;28;20023;-68
2022/03/04 10:09:49;;;;;;;34.20;23.33;;;;;;;20.91;24.65;102029.81;5040868;28;20029;-67
2022/03/04 10:12:17;;;;;;;33.00;24.05;;;;;;;20.65;24.41;102032.47;5040608;28;20017;-67
2022/03/04 10:15:01;;;;;;;33.00;24.35;;;;;;;20.55;26.14;102037.13;5040364;28;20025;-67
2022/03/04 10:17:28;;;;;;;37.15;25.27;;;;;;;20.71;24.28;102027.75;5039695;28;20060;-67
2022/03/04 10:19:56;;;;;;;34.25;24.23;;;;;;;20.00;24.49;102029.97;5040268;28;20029;-67
2022/03/04 10:22:23;;;;;;;37.35;25.65;;;;;;;19.91;24.67;102029.59;5039261;28;20025;-67
2022/03/04 10:24:49;;;;;;;39.30;26.45;;;;;;;19.96;24.60;102035.22;5040785;28;20509;-67
2022/03/04 10:27:16;;;;;;;34.90;24.15;;;;;;;20.39;24.15;102036.16;5040474;28;20040;-67
2022/03/04 10:29:48;;;;;;;38.63;25.63;;;;;;;21.37;24.41;102036.47;5040701;28;20102;-67
2022/03/04 10:32:20;;;;;;;35.22;24.30;;;;;;;21.67;22.86;102034.88;5039864;28;20422;-67
2022/03/04 10:34:59;;;;;;;37.13;24.70;;;;;;;21.93;23.38;102036.56;5040274;28;20474;-67
2022/03/04 10:37:52;;;;;;;39.17;26.13;;;;;;;22.52;23.50;102026.81;5039625;28;20033;-67
2022/03/04 10:40:20;;;;;;;38.22;25.23;;;;;;;22.25;22.42;102021.50;5040303;28;20021;-67
2022/03/04 10:42:53;;;;;;;39.72;26.55;;;;;;;22.15;22.29;102027.09;5040329;28;20036;-66
2022/03/04 10:45:28;;;;;;;41.30;26.27;;;;;;;22.37;22.73;102033.25;5041224;28;20031;-67
2022/03/04 10:47:55;;;;;;;35.58;26.50;;;;;;;22.48;21.99;102034.09;5043795;28;20108;-67
2022/03/04 10:50:42;;;;;;;39.13;26.98;;;;;;;23.27;22.87;102041.75;5043997;28;20233;-67
2022/03/04 10:53:12;;;;;;;39.05;27.48;;;;;;;22.52;22.85;102030.44;5043530;28;20021;-67
2022/03/04 10:55:42;;;;;;;39.42;26.75;;;;;;;22.84;20.84;102018.03;5044267;28;20083;-66
2022/03/04 10:58:16;;;;;;;39.75;27.20;;;;;;;23.57;21.96;102014.66;5044046;28;20036;-66
2022/03/04 11:00:44;;;;;;;41.97;27.80;;;;;;;22.72;21.48;102021.16;5042744;28;20083;-67
2022/03/04 11:03:14;;;;;;;40.80;27.55;;;;;;;22.42;22.13;102019.25;5043591;28;20091;-65
2022/03/04 11:05:39;;;;;;;43.20;28.30;;;;;;;22.36;21.90;102022.34;5044285;28;20033;-67
2022/03/04 11:08:06;;;;;;;41.90;28.73;;;;;;;22.23;21.39;102020.97;5043516;28;20028;-66
2022/03/04 11:10:31;;;;;;;41.97;28.05;;;;;;;22.73;21.83;102011.63;5043047;28;20021;-67